sensor_id;sensor_type;location;lat;lon;timestamp;P1;durP1;ratioP1;P2;durP2;ratioP2
11496;SDS011;5805;51.542;7.230;2022-10-15T00:01:35;10.43;;;9.38;;
11496;SDS011;5805;51.542;7.230;2022-10-15T00:04:01;12.10;;;9.50;;
11496;SDS011;5805;51.542;7.230;2022-10-15T00:06:28;11.48;;;9.30;;
11496;SDS011;5805;51.542;7.230;2022-10-15T00:08:54;11.25;;;9.13;;
11496;SDS011;5805;51.542;7.230;2022-10-15T00:11:21;10.10;;;9.00;;
11496;SDS011;5805;51.542;7.230;2022-10-15T00:13:48;10.32;;;9.32;;
11496;SDS011;5805;51.542;7.230;2022-10-15T00:16:15;12.45;;;9.27;;
11496;SDS011;5805;51.542;7.230;2022-10-15T00:18:42;9.48;;;8.43;;
11496;SDS011;5805;51.542;7.230;2022-10-15T00:21:09;11.35;;;8.75;;
11496;SDS011;5805;51.542;7.230;2022-10-15T00:23:38;12.68;;;9.25;;
11496;SDS011;5805;51.542;7.230;2022-10-15T00:26:04;11.63;;;9.32;;
11496;SDS011;5805;51.542;7.230;2022-10-15T00:28:31;12.23;;;9.15;;
11496;SDS011;5805;51.542;7.230;2022-10-15T00:31:04;11.25;;;9.13;;
11496;SDS011;5805;51.542;7.230;2022-10-15T00:33:32;10.00;;;8.20;;
11496;SDS011;5805;51.542;7.230;2022-10-15T00:35:59;14.25;;;9.48;;
11496;SDS011;5805;51.542;7.230;2022-10-15T00:38:26;11.68;;;9.18;;
11496;SDS011;5805;51.542;7.230;2022-10-15T00:40:53;11.85;;;9.55;;
11496;SDS011;5805;51.542;7.230;2022-10-15T00:43:33;12.82;;;9.82;;
11496;SDS011;5805;51.542;7.230;2022-10-15T00:46:00;12.52;;;9.48;;
11496;SDS011;5805;51.542;7.230;2022-10-15T00:48:26;12.23;;;9.20;;
11496;SDS011;5805;51.542;7.230;2022-10-15T00:50:55;10.93;;;9.82;;
11496;SDS011;5805;51.542;7.230;2022-10-15T00:53:20;10.82;;;9.68;;
11496;SDS011;5805;51.542;7.230;2022-10-15T00:55:47;12.68;;;10.18;;
11496;SDS011;5805;51.542;7.230;2022-10-15T00:58:15;9.93;;;8.77;;
11496;SDS011;5805;51.542;7.230;2022-10-15T01:00:44;12.90;;;9.73;;
11496;SDS011;5805;51.542;7.230;2022-10-15T01:03:10;9.90;;;8.38;;
11496;SDS011;5805;51.542;7.230;2022-10-15T01:05:36;12.38;;;8.77;;
11496;SDS011;5805;51.542;7.230;2022-10-15T01:08:03;11.43;;;8.95;;
11496;SDS011;5805;51.542;7.230;2022-10-15T01:10:31;10.98;;;8.60;;
11496;SDS011;5805;51.542;7.230;2022-10-15T01:13:06;11.93;;;9.75;;
11496;SDS011;5805;51.542;7.230;2022-10-15T01:15:39;15.38;;;9.35;;
11496;SDS011;5805;51.542;7.230;2022-10-15T01:18:11;10.88;;;8.82;;
11496;SDS011;5805;51.542;7.230;2022-10-15T01:20:51;13.00;;;9.85;;
11496;SDS011;5805;51.542;7.230;2022-10-15T01:23:40;10.60;;;9.40;;
11496;SDS011;5805;51.542;7.230;2022-10-15T01:29:36;13.05;;;10.00;;
11496;SDS011;5805;51.542;7.230;2022-10-15T01:32:27;12.95;;;10.55;;
11496;SDS011;5805;51.542;7.230;2022-10-15T01:34:59;11.15;;;9.95;;
11496;SDS011;5805;51.542;7.230;2022-10-15T01:37:33;11.70;;;9.75;;
11496;SDS011;5805;51.542;7.230;2022-10-15T01:40:04;13.55;;;10.00;;
11496;SDS011;5805;51.542;7.230;2022-10-15T01:42:39;13.93;;;10.18;;
11496;SDS011;5805;51.542;7.230;2022-10-15T01:45:13;15.20;;;9.35;;
11496;SDS011;5805;51.542;7.230;2022-10-15T01:47:46;13.23;;;10.20;;
11496;SDS011;5805;51.542;7.230;2022-10-15T01:50:13;12.48;;;9.90;;
11496;SDS011;5805;51.542;7.230;2022-10-15T01:52:42;17.52;;;9.88;;
11496;SDS011;5805;51.542;7.230;2022-10-15T01:55:10;13.10;;;9.73;;
11496;SDS011;5805;51.542;7.230;2022-10-15T01:57:39;11.63;;;8.80;;
11496;SDS011;5805;51.542;7.230;2022-10-15T02:00:07;12.55;;;8.75;;
11496;SDS011;5805;51.542;7.230;2022-10-15T02:02:33;11.30;;;9.00;;
11496;SDS011;5805;51.542;7.230;2022-10-15T02:05:00;12.40;;;9.18;;
11496;SDS011;5805;51.542;7.230;2022-10-15T02:07:28;11.32;;;8.90;;
11496;SDS011;5805;51.542;7.230;2022-10-15T02:10:04;20.33;;;9.20;;
11496;SDS011;5805;51.542;7.230;2022-10-15T02:12:35;12.60;;;9.27;;
11496;SDS011;5805;51.542;7.230;2022-10-15T02:15:15;9.95;;;8.52;;
11496;SDS011;5805;51.542;7.230;2022-10-15T02:17:48;12.02;;;9.35;;
11496;SDS011;5805;51.542;7.230;2022-10-15T02:20:23;11.82;;;10.07;;
11496;SDS011;5805;51.542;7.230;2022-10-15T02:22:55;12.55;;;10.50;;
11496;SDS011;5805;51.542;7.230;2022-10-15T02:25:26;16.40;;;11.10;;
11496;SDS011;5805;51.542;7.230;2022-10-15T02:27:53;14.10;;;11.52;;
11496;SDS011;5805;51.542;7.230;2022-10-15T02:30:20;16.98;;;11.77;;
11496;SDS011;5805;51.542;7.230;2022-10-15T02:32:46;16.88;;;12.85;;
11496;SDS011;5805;51.542;7.230;2022-10-15T02:35:15;17.15;;;12.05;;
11496;SDS011;5805;51.542;7.230;2022-10-15T02:37:49;17.27;;;12.15;;
11496;SDS011;5805;51.542;7.230;2022-10-15T02:40:17;17.40;;;12.50;;
11496;SDS011;5805;51.542;7.230;2022-10-15T02:42:45;18.77;;;12.88;;
11496;SDS011;5805;51.542;7.230;2022-10-15T02:45:13;19.55;;;14.48;;
11496;SDS011;5805;51.542;7.230;2022-10-15T02:47:38;21.30;;;14.75;;
11496;SDS011;5805;51.542;7.230;2022-10-15T02:50:04;19.92;;;14.40;;
11496;SDS011;5805;51.542;7.230;2022-10-15T02:52:30;27.58;;;16.98;;
11496;SDS011;5805;51.542;7.230;2022-10-15T02:54:57;37.05;;;20.35;;
11496;SDS011;5805;51.542;7.230;2022-10-15T02:57:23;33.10;;;18.67;;
11496;SDS011;5805;51.542;7.230;2022-10-15T02:59:48;32.88;;;20.15;;
11496;SDS011;5805;51.542;7.230;2022-10-15T03:02:14;38.72;;;21.52;;
11496;SDS011;5805;51.542;7.230;2022-10-15T03:04:40;36.70;;;22.58;;
11496;SDS011;5805;51.542;7.230;2022-10-15T03:07:05;36.50;;;21.50;;
11496;SDS011;5805;51.542;7.230;2022-10-15T03:09:31;34.47;;;21.45;;
11496;SDS011;5805;51.542;7.230;2022-10-15T03:11:58;33.72;;;21.40;;
11496;SDS011;5805;51.542;7.230;2022-10-15T03:14:23;33.58;;;18.80;;
11496;SDS011;5805;51.542;7.230;2022-10-15T03:16:49;26.00;;;18.77;;
11496;SDS011;5805;51.542;7.230;2022-10-15T03:19:15;25.55;;;18.00;;
11496;SDS011;5805;51.542;7.230;2022-10-15T03:21:41;26.25;;;16.95;;
11496;SDS011;5805;51.542;7.230;2022-10-15T03:24:06;29.17;;;16.92;;
11496;SDS011;5805;51.542;7.230;2022-10-15T03:26:32;23.00;;;16.52;;
11496;SDS011;5805;51.542;7.230;2022-10-15T03:28:59;32.75;;;19.48;;
11496;SDS011;5805;51.542;7.230;2022-10-15T03:31:24;32.22;;;19.00;;
11496;SDS011;5805;51.542;7.230;2022-10-15T03:33:50;33.30;;;20.58;;
11496;SDS011;5805;51.542;7.230;2022-10-15T03:36:16;39.97;;;22.50;;
11496;SDS011;5805;51.542;7.230;2022-10-15T03:38:41;40.45;;;22.50;;
11496;SDS011;5805;51.542;7.230;2022-10-15T03:41:07;40.38;;;24.38;;
11496;SDS011;5805;51.542;7.230;2022-10-15T03:43:33;39.20;;;24.33;;
11496;SDS011;5805;51.542;7.230;2022-10-15T03:46:01;39.90;;;23.77;;
11496;SDS011;5805;51.542;7.230;2022-10-15T03:48:28;40.25;;;24.67;;
11496;SDS011;5805;51.542;7.230;2022-10-15T03:50:53;37.95;;;24.50;;
11496;SDS011;5805;51.542;7.230;2022-10-15T03:53:19;39.33;;;23.17;;
11496;SDS011;5805;51.542;7.230;2022-10-15T03:55:44;38.03;;;23.35;;
11496;SDS011;5805;51.542;7.230;2022-10-15T03:58:10;33.88;;;21.30;;
11496;SDS011;5805;51.542;7.230;2022-10-15T04:00:36;34.60;;;23.48;;
11496;SDS011;5805;51.542;7.230;2022-10-15T04:03:06;31.60;;;21.75;;
11496;SDS011;5805;51.542;7.230;2022-10-15T04:05:31;28.58;;;19.75;;
11496;SDS011;5805;51.542;7.230;2022-10-15T04:07:57;33.05;;;19.20;;
11496;SDS011;5805;51.542;7.230;2022-10-15T04:10:23;25.65;;;18.70;;
11496;SDS011;5805;51.542;7.230;2022-10-15T04:12:48;28.80;;;19.15;;
11496;SDS011;5805;51.542;7.230;2022-10-15T04:15:14;30.88;;;20.23;;
11496;SDS011;5805;51.542;7.230;2022-10-15T04:17:40;26.02;;;18.42;;
11496;SDS011;5805;51.542;7.230;2022-10-15T04:20:07;32.03;;;18.20;;
11496;SDS011;5805;51.542;7.230;2022-10-15T04:22:35;28.05;;;18.77;;
11496;SDS011;5805;51.542;7.230;2022-10-15T04:25:01;19.30;;;16.25;;
11496;SDS011;5805;51.542;7.230;2022-10-15T04:27:28;20.25;;;16.45;;
11496;SDS011;5805;51.542;7.230;2022-10-15T04:29:53;20.08;;;15.77;;
11496;SDS011;5805;51.542;7.230;2022-10-15T04:32:19;21.80;;;17.15;;
11496;SDS011;5805;51.542;7.230;2022-10-15T04:34:45;21.63;;;17.23;;
11496;SDS011;5805;51.542;7.230;2022-10-15T04:37:12;20.13;;;15.73;;
11496;SDS011;5805;51.542;7.230;2022-10-15T04:39:38;19.63;;;16.65;;
11496;SDS011;5805;51.542;7.230;2022-10-15T04:42:04;19.45;;;16.40;;
11496;SDS011;5805;51.542;7.230;2022-10-15T04:44:29;24.70;;;16.90;;
11496;SDS011;5805;51.542;7.230;2022-10-15T04:46:55;20.02;;;17.27;;
11496;SDS011;5805;51.542;7.230;2022-10-15T04:49:21;20.98;;;16.92;;
11496;SDS011;5805;51.542;7.230;2022-10-15T04:51:46;18.85;;;16.70;;
11496;SDS011;5805;51.542;7.230;2022-10-15T04:54:14;21.45;;;16.15;;
11496;SDS011;5805;51.542;7.230;2022-10-15T04:56:39;19.10;;;16.92;;
11496;SDS011;5805;51.542;7.230;2022-10-15T04:59:06;18.63;;;16.15;;
11496;SDS011;5805;51.542;7.230;2022-10-15T05:01:32;19.17;;;16.23;;
11496;SDS011;5805;51.542;7.230;2022-10-15T05:03:58;19.50;;;16.77;;
11496;SDS011;5805;51.542;7.230;2022-10-15T05:06:23;23.52;;;17.63;;
11496;SDS011;5805;51.542;7.230;2022-10-15T05:08:49;20.90;;;17.85;;
11496;SDS011;5805;51.542;7.230;2022-10-15T05:11:17;26.70;;;19.40;;
11496;SDS011;5805;51.542;7.230;2022-10-15T05:13:44;21.80;;;17.77;;
11496;SDS011;5805;51.542;7.230;2022-10-15T05:16:11;22.63;;;18.40;;
11496;SDS011;5805;51.542;7.230;2022-10-15T05:18:37;27.90;;;18.70;;
11496;SDS011;5805;51.542;7.230;2022-10-15T05:21:04;23.02;;;19.08;;
11496;SDS011;5805;51.542;7.230;2022-10-15T05:23:30;22.30;;;18.40;;
11496;SDS011;5805;51.542;7.230;2022-10-15T05:25:57;23.02;;;19.75;;
11496;SDS011;5805;51.542;7.230;2022-10-15T05:28:25;25.90;;;19.48;;
11496;SDS011;5805;51.542;7.230;2022-10-15T05:30:50;23.10;;;18.90;;
11496;SDS011;5805;51.542;7.230;2022-10-15T05:33:16;23.48;;;19.85;;
11496;SDS011;5805;51.542;7.230;2022-10-15T05:35:42;23.48;;;19.73;;
11496;SDS011;5805;51.542;7.230;2022-10-15T05:38:07;26.25;;;20.33;;
11496;SDS011;5805;51.542;7.230;2022-10-15T05:40:33;22.17;;;19.00;;
11496;SDS011;5805;51.542;7.230;2022-10-15T05:42:58;24.08;;;19.80;;
11496;SDS011;5805;51.542;7.230;2022-10-15T05:45:25;27.98;;;22.85;;
11496;SDS011;5805;51.542;7.230;2022-10-15T05:47:52;22.55;;;20.15;;
11496;SDS011;5805;51.542;7.230;2022-10-15T05:50:18;25.98;;;19.20;;
11496;SDS011;5805;51.542;7.230;2022-10-15T05:52:43;24.13;;;20.55;;
11496;SDS011;5805;51.542;7.230;2022-10-15T05:55:09;25.80;;;20.27;;
11496;SDS011;5805;51.542;7.230;2022-10-15T05:57:35;29.55;;;19.65;;
11496;SDS011;5805;51.542;7.230;2022-10-15T06:00:01;25.20;;;20.42;;
11496;SDS011;5805;51.542;7.230;2022-10-15T06:02:29;25.25;;;20.27;;
11496;SDS011;5805;51.542;7.230;2022-10-15T06:04:55;23.67;;;20.15;;
11496;SDS011;5805;51.542;7.230;2022-10-15T06:07:20;27.83;;;20.85;;
11496;SDS011;5805;51.542;7.230;2022-10-15T06:09:46;26.85;;;20.38;;
11496;SDS011;5805;51.542;7.230;2022-10-15T06:12:12;27.95;;;19.85;;
11496;SDS011;5805;51.542;7.230;2022-10-15T06:14:37;26.75;;;19.38;;
11496;SDS011;5805;51.542;7.230;2022-10-15T06:17:03;25.13;;;19.58;;
11496;SDS011;5805;51.542;7.230;2022-10-15T06:19:30;28.08;;;19.90;;
11496;SDS011;5805;51.542;7.230;2022-10-15T06:21:56;24.38;;;20.05;;
11496;SDS011;5805;51.542;7.230;2022-10-15T06:24:22;24.13;;;19.95;;
11496;SDS011;5805;51.542;7.230;2022-10-15T06:26:47;22.70;;;19.35;;
11496;SDS011;5805;51.542;7.230;2022-10-15T06:29:13;21.77;;;19.48;;
11496;SDS011;5805;51.542;7.230;2022-10-15T06:31:39;23.25;;;20.10;;
11496;SDS011;5805;51.542;7.230;2022-10-15T06:34:04;26.92;;;19.73;;
11496;SDS011;5805;51.542;7.230;2022-10-15T06:36:31;23.25;;;20.67;;
11496;SDS011;5805;51.542;7.230;2022-10-15T06:38:57;25.25;;;20.08;;
11496;SDS011;5805;51.542;7.230;2022-10-15T06:41:23;24.63;;;20.77;;
11496;SDS011;5805;51.542;7.230;2022-10-15T06:43:48;21.35;;;19.05;;
11496;SDS011;5805;51.542;7.230;2022-10-15T06:46:14;23.92;;;21.13;;
11496;SDS011;5805;51.542;7.230;2022-10-15T06:48:40;23.02;;;20.48;;
11496;SDS011;5805;51.542;7.230;2022-10-15T06:51:06;24.80;;;20.75;;
11496;SDS011;5805;51.542;7.230;2022-10-15T06:53:33;25.10;;;20.48;;
11496;SDS011;5805;51.542;7.230;2022-10-15T06:55:59;24.05;;;19.60;;
11496;SDS011;5805;51.542;7.230;2022-10-15T06:58:26;23.75;;;19.45;;
11496;SDS011;5805;51.542;7.230;2022-10-15T07:00:52;26.35;;;21.42;;
11496;SDS011;5805;51.542;7.230;2022-10-15T07:03:17;22.88;;;19.58;;
11496;SDS011;5805;51.542;7.230;2022-10-15T07:05:43;23.13;;;19.27;;
11496;SDS011;5805;51.542;7.230;2022-10-15T07:08:09;24.42;;;18.88;;
11496;SDS011;5805;51.542;7.230;2022-10-15T07:10:36;21.52;;;18.10;;
11496;SDS011;5805;51.542;7.230;2022-10-15T07:13:01;21.63;;;18.67;;
11496;SDS011;5805;51.542;7.230;2022-10-15T07:15:27;23.38;;;17.63;;
11496;SDS011;5805;51.542;7.230;2022-10-15T07:17:53;23.40;;;17.15;;
11496;SDS011;5805;51.542;7.230;2022-10-15T07:20:20;22.35;;;17.05;;
11496;SDS011;5805;51.542;7.230;2022-10-15T07:22:46;20.42;;;16.88;;
11496;SDS011;5805;51.542;7.230;2022-10-15T07:25:11;20.05;;;16.08;;
11496;SDS011;5805;51.542;7.230;2022-10-15T07:27:38;20.88;;;16.92;;
11496;SDS011;5805;51.542;7.230;2022-10-15T07:30:05;18.05;;;15.90;;
11496;SDS011;5805;51.542;7.230;2022-10-15T07:32:32;17.95;;;15.57;;
11496;SDS011;5805;51.542;7.230;2022-10-15T07:34:58;17.95;;;15.18;;
11496;SDS011;5805;51.542;7.230;2022-10-15T07:37:23;17.38;;;15.55;;
11496;SDS011;5805;51.542;7.230;2022-10-15T07:39:49;19.15;;;16.00;;
11496;SDS011;5805;51.542;7.230;2022-10-15T07:42:15;17.40;;;15.13;;
11496;SDS011;5805;51.542;7.230;2022-10-15T07:44:42;18.20;;;15.23;;
11496;SDS011;5805;51.542;7.230;2022-10-15T07:47:07;18.65;;;15.43;;
11496;SDS011;5805;51.542;7.230;2022-10-15T07:49:33;19.92;;;14.98;;
11496;SDS011;5805;51.542;7.230;2022-10-15T07:51:58;19.52;;;16.17;;
11496;SDS011;5805;51.542;7.230;2022-10-15T07:54:24;18.60;;;15.77;;
11496;SDS011;5805;51.542;7.230;2022-10-15T07:56:50;19.33;;;16.98;;
11496;SDS011;5805;51.542;7.230;2022-10-15T07:59:15;19.48;;;17.15;;
11496;SDS011;5805;51.542;7.230;2022-10-15T08:01:42;22.65;;;16.58;;
11496;SDS011;5805;51.542;7.230;2022-10-15T08:04:08;20.73;;;17.02;;
11496;SDS011;5805;51.542;7.230;2022-10-15T08:06:34;20.80;;;16.42;;
11496;SDS011;5805;51.542;7.230;2022-10-15T08:08:59;21.08;;;17.33;;
11496;SDS011;5805;51.542;7.230;2022-10-15T08:11:25;21.05;;;17.80;;
11496;SDS011;5805;51.542;7.230;2022-10-15T08:13:51;21.48;;;18.25;;
11496;SDS011;5805;51.542;7.230;2022-10-15T08:16:17;26.77;;;18.67;;
11496;SDS011;5805;51.542;7.230;2022-10-15T08:18:44;19.88;;;17.33;;
11496;SDS011;5805;51.542;7.230;2022-10-15T08:21:10;23.85;;;18.42;;
11496;SDS011;5805;51.542;7.230;2022-10-15T08:23:36;20.15;;;18.02;;
11496;SDS011;5805;51.542;7.230;2022-10-15T08:26:02;18.90;;;17.00;;
11496;SDS011;5805;51.542;7.230;2022-10-15T08:28:29;19.35;;;17.23;;
11496;SDS011;5805;51.542;7.230;2022-10-15T08:30:56;18.42;;;15.55;;
11496;SDS011;5805;51.542;7.230;2022-10-15T08:33:22;15.82;;;14.32;;
11496;SDS011;5805;51.542;7.230;2022-10-15T08:35:49;16.60;;;13.50;;
11496;SDS011;5805;51.542;7.230;2022-10-15T08:38:16;14.23;;;12.65;;
11496;SDS011;5805;51.542;7.230;2022-10-15T08:40:44;13.65;;;11.60;;
11496;SDS011;5805;51.542;7.230;2022-10-15T08:43:13;11.93;;;10.60;;
11496;SDS011;5805;51.542;7.230;2022-10-15T08:45:44;11.77;;;10.30;;
11496;SDS011;5805;51.542;7.230;2022-10-15T08:48:11;12.10;;;10.88;;
11496;SDS011;5805;51.542;7.230;2022-10-15T08:50:43;11.38;;;9.82;;
11496;SDS011;5805;51.542;7.230;2022-10-15T08:53:14;10.98;;;9.98;;
11496;SDS011;5805;51.542;7.230;2022-10-15T08:55:47;12.32;;;8.82;;
11496;SDS011;5805;51.542;7.230;2022-10-15T08:58:15;10.02;;;9.02;;
11496;SDS011;5805;51.542;7.230;2022-10-15T09:00:45;8.63;;;7.75;;
11496;SDS011;5805;51.542;7.230;2022-10-15T09:03:20;8.43;;;7.63;;
11496;SDS011;5805;51.542;7.230;2022-10-15T09:05:54;8.88;;;6.95;;
11496;SDS011;5805;51.542;7.230;2022-10-15T09:08:27;7.35;;;6.65;;
11496;SDS011;5805;51.542;7.230;2022-10-15T09:10:58;7.55;;;6.10;;
11496;SDS011;5805;51.542;7.230;2022-10-15T09:13:27;6.80;;;6.10;;
11496;SDS011;5805;51.542;7.230;2022-10-15T09:15:55;6.22;;;4.88;;
11496;SDS011;5805;51.542;7.230;2022-10-15T09:18:26;5.38;;;4.10;;
11496;SDS011;5805;51.542;7.230;2022-10-15T09:20:56;4.40;;;4.00;;
11496;SDS011;5805;51.542;7.230;2022-10-15T09:23:24;5.22;;;4.03;;
11496;SDS011;5805;51.542;7.230;2022-10-15T09:25:56;5.05;;;4.20;;
11496;SDS011;5805;51.542;7.230;2022-10-15T09:28:28;3.92;;;3.17;;
11496;SDS011;5805;51.542;7.230;2022-10-15T09:31:02;5.40;;;2.58;;
11496;SDS011;5805;51.542;7.230;2022-10-15T09:33:32;1.88;;;1.77;;
11496;SDS011;5805;51.542;7.230;2022-10-15T09:36:05;1.90;;;1.63;;
11496;SDS011;5805;51.542;7.230;2022-10-15T09:38:39;3.65;;;1.45;;
11496;SDS011;5805;51.542;7.230;2022-10-15T09:41:17;1.60;;;1.50;;
11496;SDS011;5805;51.542;7.230;2022-10-15T09:43:52;1.60;;;1.30;;
11496;SDS011;5805;51.542;7.230;2022-10-15T09:46:21;1.20;;;1.10;;
11496;SDS011;5805;51.542;7.230;2022-10-15T09:48:47;0.95;;;0.95;;
11496;SDS011;5805;51.542;7.230;2022-10-15T09:51:24;1.13;;;1.05;;
11496;SDS011;5805;51.542;7.230;2022-10-15T09:53:57;0.93;;;0.93;;
11496;SDS011;5805;51.542;7.230;2022-10-15T09:56:34;1.30;;;1.20;;
11496;SDS011;5805;51.542;7.230;2022-10-15T09:59:02;1.83;;;0.93;;
11496;SDS011;5805;51.542;7.230;2022-10-15T10:01:28;1.25;;;0.98;;
11496;SDS011;5805;51.542;7.230;2022-10-15T10:04:10;1.00;;;0.80;;
11496;SDS011;5805;51.542;7.230;2022-10-15T10:06:42;0.60;;;0.60;;
11496;SDS011;5805;51.542;7.230;2022-10-15T10:09:11;1.67;;;0.90;;
11496;SDS011;5805;51.542;7.230;2022-10-15T10:11:46;0.60;;;0.50;;
11496;SDS011;5805;51.542;7.230;2022-10-15T10:14:20;0.60;;;0.60;;
11496;SDS011;5805;51.542;7.230;2022-10-15T10:17:05;0.73;;;0.52;;
11496;SDS011;5805;51.542;7.230;2022-10-15T10:19:32;1.10;;;0.60;;
11496;SDS011;5805;51.542;7.230;2022-10-15T10:22:05;1.00;;;0.60;;
11496;SDS011;5805;51.542;7.230;2022-10-15T10:24:36;0.70;;;0.60;;
11496;SDS011;5805;51.542;7.230;2022-10-15T10:27:03;2.13;;;0.52;;
11496;SDS011;5805;51.542;7.230;2022-10-15T10:29:43;0.50;;;0.50;;
11496;SDS011;5805;51.542;7.230;2022-10-15T10:32:18;0.90;;;0.40;;
11496;SDS011;5805;51.542;7.230;2022-10-15T10:34:45;0.70;;;0.52;;
11496;SDS011;5805;51.542;7.230;2022-10-15T10:37:11;1.98;;;0.63;;
11496;SDS011;5805;51.542;7.230;2022-10-15T10:39:37;2.40;;;0.57;;
11496;SDS011;5805;51.542;7.230;2022-10-15T10:42:05;1.52;;;0.70;;
11496;SDS011;5805;51.542;7.230;2022-10-15T10:44:32;0.50;;;0.50;;
11496;SDS011;5805;51.542;7.230;2022-10-15T10:47:07;0.50;;;0.50;;
11496;SDS011;5805;51.542;7.230;2022-10-15T10:49:36;1.52;;;0.70;;
11496;SDS011;5805;51.542;7.230;2022-10-15T10:52:03;1.42;;;0.50;;
11496;SDS011;5805;51.542;7.230;2022-10-15T10:54:29;0.47;;;0.40;;
11496;SDS011;5805;51.542;7.230;2022-10-15T10:56:57;0.50;;;0.50;;
11496;SDS011;5805;51.542;7.230;2022-10-15T10:59:26;0.95;;;0.60;;
11496;SDS011;5805;51.542;7.230;2022-10-15T11:01:55;0.50;;;0.50;;
11496;SDS011;5805;51.542;7.230;2022-10-15T11:04:22;0.90;;;0.50;;
11496;SDS011;5805;51.542;7.230;2022-10-15T11:06:53;1.17;;;0.38;;
11496;SDS011;5805;51.542;7.230;2022-10-15T11:12:14;0.40;;;0.40;;
11496;SDS011;5805;51.542;7.230;2022-10-15T11:15:12;0.85;;;0.70;;
11496;SDS011;5805;51.542;7.230;2022-10-15T11:17:46;1.75;;;0.30;;
11496;SDS011;5805;51.542;7.230;2022-10-15T11:20:19;0.40;;;0.40;;
11496;SDS011;5805;51.542;7.230;2022-10-15T11:22:54;0.82;;;0.60;;
11496;SDS011;5805;51.542;7.230;2022-10-15T11:25:32;0.65;;;0.60;;
11496;SDS011;5805;51.542;7.230;2022-10-15T11:28:17;0.63;;;0.50;;
11496;SDS011;5805;51.542;7.230;2022-10-15T11:30:53;0.65;;;0.60;;
11496;SDS011;5805;51.542;7.230;2022-10-15T11:33:37;0.77;;;0.52;;
11496;SDS011;5805;51.542;7.230;2022-10-15T11:36:20;0.85;;;0.63;;
11496;SDS011;5805;51.542;7.230;2022-10-15T11:39:13;1.38;;;0.50;;
11496;SDS011;5805;51.542;7.230;2022-10-15T11:41:50;0.60;;;0.60;;
11496;SDS011;5805;51.542;7.230;2022-10-15T11:44:29;3.03;;;0.52;;
11496;SDS011;5805;51.542;7.230;2022-10-15T11:47:06;2.45;;;0.63;;
11496;SDS011;5805;51.542;7.230;2022-10-15T11:49:46;0.65;;;0.50;;
11496;SDS011;5805;51.542;7.230;2022-10-15T11:52:28;0.38;;;0.38;;
11496;SDS011;5805;51.542;7.230;2022-10-15T11:55:03;2.42;;;0.68;;
11496;SDS011;5805;51.542;7.230;2022-10-15T11:57:35;0.50;;;0.50;;
11496;SDS011;5805;51.542;7.230;2022-10-15T12:00:03;1.05;;;0.70;;
11496;SDS011;5805;51.542;7.230;2022-10-15T12:02:41;0.43;;;0.43;;
11496;SDS011;5805;51.542;7.230;2022-10-15T12:05:07;0.50;;;0.50;;
11496;SDS011;5805;51.542;7.230;2022-10-15T12:07:36;0.65;;;0.65;;
11496;SDS011;5805;51.542;7.230;2022-10-15T12:10:07;1.10;;;0.70;;
11496;SDS011;5805;51.542;7.230;2022-10-15T12:12:45;0.63;;;0.63;;
11496;SDS011;5805;51.542;7.230;2022-10-15T12:15:19;1.30;;;0.60;;
11496;SDS011;5805;51.542;7.230;2022-10-15T12:17:53;2.13;;;0.60;;
11496;SDS011;5805;51.542;7.230;2022-10-15T12:20:23;0.98;;;0.50;;
11496;SDS011;5805;51.542;7.230;2022-10-15T12:22:55;0.57;;;0.45;;
11496;SDS011;5805;51.542;7.230;2022-10-15T12:25:39;0.73;;;0.60;;
11496;SDS011;5805;51.542;7.230;2022-10-15T12:28:11;0.63;;;0.63;;
11496;SDS011;5805;51.542;7.230;2022-10-15T12:30:39;0.90;;;0.70;;
11496;SDS011;5805;51.542;7.230;2022-10-15T12:33:22;4.43;;;1.10;;
11496;SDS011;5805;51.542;7.230;2022-10-15T12:35:53;0.77;;;0.70;;
11496;SDS011;5805;51.542;7.230;2022-10-15T12:38:22;0.98;;;0.80;;
11496;SDS011;5805;51.542;7.230;2022-10-15T12:41:02;0.65;;;0.65;;
11496;SDS011;5805;51.542;7.230;2022-10-15T12:43:30;3.47;;;0.70;;
11496;SDS011;5805;51.542;7.230;2022-10-15T12:46:00;1.13;;;0.73;;
11496;SDS011;5805;51.542;7.230;2022-10-15T12:48:29;1.60;;;0.65;;
11496;SDS011;5805;51.542;7.230;2022-10-15T12:54:01;0.63;;;0.63;;
11496;SDS011;5805;51.542;7.230;2022-10-15T12:56:48;0.70;;;0.70;;
11496;SDS011;5805;51.542;7.230;2022-10-15T12:59:27;0.60;;;0.55;;
11496;SDS011;5805;51.542;7.230;2022-10-15T13:01:54;1.00;;;0.73;;
11496;SDS011;5805;51.542;7.230;2022-10-15T13:04:21;5.75;;;0.82;;
11496;SDS011;5805;51.542;7.230;2022-10-15T13:06:46;0.70;;;0.70;;
11496;SDS011;5805;51.542;7.230;2022-10-15T13:09:17;0.60;;;0.60;;
11496;SDS011;5805;51.542;7.230;2022-10-15T13:11:51;0.73;;;0.60;;
11496;SDS011;5805;51.542;7.230;2022-10-15T13:14:19;1.17;;;0.60;;
11496;SDS011;5805;51.542;7.230;2022-10-15T13:16:57;1.00;;;0.70;;
11496;SDS011;5805;51.542;7.230;2022-10-15T13:19:27;0.50;;;0.50;;
11496;SDS011;5805;51.542;7.230;2022-10-15T13:21:55;0.63;;;0.63;;
11496;SDS011;5805;51.542;7.230;2022-10-15T13:24:23;0.68;;;0.60;;
11496;SDS011;5805;51.542;7.230;2022-10-15T13:26:50;0.57;;;0.50;;
11496;SDS011;5805;51.542;7.230;2022-10-15T13:29:17;2.25;;;0.75;;
11496;SDS011;5805;51.542;7.230;2022-10-15T13:31:44;0.60;;;0.60;;
11496;SDS011;5805;51.542;7.230;2022-10-15T13:34:13;1.27;;;0.68;;
11496;SDS011;5805;51.542;7.230;2022-10-15T13:36:46;1.95;;;0.95;;
11496;SDS011;5805;51.542;7.230;2022-10-15T13:39:19;1.85;;;0.90;;
11496;SDS011;5805;51.542;7.230;2022-10-15T13:42:04;4.43;;;1.00;;
11496;SDS011;5805;51.542;7.230;2022-10-15T13:44:32;1.80;;;0.70;;
11496;SDS011;5805;51.542;7.230;2022-10-15T13:46:58;0.52;;;0.52;;
11496;SDS011;5805;51.542;7.230;2022-10-15T13:49:24;1.40;;;0.90;;
11496;SDS011;5805;51.542;7.230;2022-10-15T13:51:52;3.97;;;0.82;;
11496;SDS011;5805;51.542;7.230;2022-10-15T13:54:18;1.20;;;0.90;;
11496;SDS011;5805;51.542;7.230;2022-10-15T13:56:47;3.45;;;1.33;;
11496;SDS011;5805;51.542;7.230;2022-10-15T13:59:16;0.98;;;0.93;;
11496;SDS011;5805;51.542;7.230;2022-10-15T14:01:44;1.85;;;1.42;;
11496;SDS011;5805;51.542;7.230;2022-10-15T14:04:13;4.53;;;1.65;;
11496;SDS011;5805;51.542;7.230;2022-10-15T14:06:40;2.10;;;1.60;;
11496;SDS011;5805;51.542;7.230;2022-10-15T14:09:18;3.13;;;1.40;;
11496;SDS011;5805;51.542;7.230;2022-10-15T14:11:46;1.60;;;1.40;;
11496;SDS011;5805;51.542;7.230;2022-10-15T14:14:28;1.90;;;1.42;;
11496;SDS011;5805;51.542;7.230;2022-10-15T14:16:57;2.85;;;1.80;;
11496;SDS011;5805;51.542;7.230;2022-10-15T14:19:24;1.17;;;1.02;;
11496;SDS011;5805;51.542;7.230;2022-10-15T14:21:51;1.42;;;1.33;;
11496;SDS011;5805;51.542;7.230;2022-10-15T14:24:19;4.20;;;1.23;;
11496;SDS011;5805;51.542;7.230;2022-10-15T14:26:47;1.08;;;0.80;;
11496;SDS011;5805;51.542;7.230;2022-10-15T14:29:15;1.08;;;1.00;;
11496;SDS011;5805;51.542;7.230;2022-10-15T14:31:44;2.25;;;0.90;;
11496;SDS011;5805;51.542;7.230;2022-10-15T14:34:24;1.25;;;1.08;;
11496;SDS011;5805;51.542;7.230;2022-10-15T14:36:53;2.10;;;1.25;;
11496;SDS011;5805;51.542;7.230;2022-10-15T14:39:24;1.10;;;0.95;;
11496;SDS011;5805;51.542;7.230;2022-10-15T14:41:56;1.13;;;0.90;;
11496;SDS011;5805;51.542;7.230;2022-10-15T14:44:23;0.98;;;0.90;;
11496;SDS011;5805;51.542;7.230;2022-10-15T14:46:50;1.88;;;1.50;;
11496;SDS011;5805;51.542;7.230;2022-10-15T14:49:23;2.45;;;1.50;;
11496;SDS011;5805;51.542;7.230;2022-10-15T14:51:52;2.03;;;1.40;;
11496;SDS011;5805;51.542;7.230;2022-10-15T14:54:21;0.98;;;0.90;;
11496;SDS011;5805;51.542;7.230;2022-10-15T14:56:51;1.70;;;1.20;;
11496;SDS011;5805;51.542;7.230;2022-10-15T14:59:17;1.17;;;1.08;;
11496;SDS011;5805;51.542;7.230;2022-10-15T15:01:51;1.65;;;0.93;;
11496;SDS011;5805;51.542;7.230;2022-10-15T15:04:35;1.48;;;0.85;;
11496;SDS011;5805;51.542;7.230;2022-10-15T15:07:05;3.97;;;1.20;;
11496;SDS011;5805;51.542;7.230;2022-10-15T15:09:37;1.83;;;0.93;;